Time;durP1;ratioP1;P1;durP2;ratioP2;P2;SDS_P1;SDS_P2;PMS_P1;PMS_P2;Temp;Humidity;BMP_temperature;BMP_pressure;BME280_temperature;BME280_humidity;BME280_pressure;Samples;Min_cycle;Max_cycle;Signal;HPM_P1;HPM_P2
2021/03/21 00:00:43;;;;;;;19.52;14.70;;;;;;;2.27;77.58;101016.77;1765565;81;21431;-72
2021/03/21 00:03:11;;;;;;;29.33;17.40;;;;;;;2.13;78.25;101010.53;1750968;82;21038;-71
2021/03/21 00:05:39;;;;;;;25.32;18.52;;;;;;;2.13;78.25;101010.53;1765546;81;21492;-71
2021/03/21 00:08:26;;;;;;;31.10;20.57;;;;;;;2.14;77.88;101008.38;1750765;82;21082;-72
2021/03/21 00:10:59;;;;;;;28.52;20.60;;;;;;;2.12;77.77;101011.88;1765583;81;20942;-72
2021/03/21 00:13:28;;;;;;;26.15;18.62;;;;;;;2.08;77.69;101009.77;1750910;81;21451;-74
2021/03/21 00:15:57;;;;;;;28.47;20.68;;;;;;;2.02;77.50;101005.58;1765890;81;21349;-72
2021/03/21 00:18:30;;;;;;;25.02;16.87;;;;;;;1.95;77.57;101002.67;1751024;81;20943;-73
2021/03/21 00:20:58;;;;;;;24.95;18.00;;;;;;;1.91;77.79;101005.34;1750777;82;21022;-71
2021/03/21 00:23:26;;;;;;;21.20;17.12;;;;;;;1.86;77.96;100998.96;1765700;81;20954;-74
2021/03/21 00:25:54;;;;;;;22.65;17.10;;;;;;;1.81;78.01;100996.46;1750800;82;22386;-72
2021/03/21 00:28:31;;;;;;;25.52;16.70;;;;;;;1.81;77.96;101001.63;1765498;81;20962;-73
2021/03/21 00:30:59;;;;;;;21.50;15.98;;;;;;;1.76;77.81;101002.16;1750559;82;21096;-73
2021/03/21 00:33:31;;;;;;;20.30;14.40;;;;;;;1.73;77.85;100994.44;1765542;81;21002;-72
2021/03/21 00:35:59;;;;;;;21.65;15.15;;;;;;;1.71;77.73;100996.64;1750891;82;21508;-72
2021/03/21 00:38:37;;;;;;;18.90;14.15;;;;;;;1.67;77.95;100995.87;1765668;81;21475;-73
2021/03/21 00:41:07;;;;;;;22.77;15.00;;;;;;;1.64;78.09;100993.31;1750654;81;20978;-71
2021/03/21 00:43:35;;;;;;;18.15;14.53;;;;;;;1.61;78.21;100989.50;1765580;81;20962;-71
2021/03/21 00:47:24;;;;;;;27.82;17.10;;;;;;;1.62;78.37;100983.02;1816082;77;22688;-72
2021/03/21 00:49:52;;;;;;;23.90;15.98;;;;;;;1.56;78.27;100987.00;1789197;80;21033;-72
2021/03/21 00:52:20;;;;;;;27.27;18.65;;;;;;;1.54;78.04;100986.61;1789149;80;21386;-72
2021/03/21 00:54:49;;;;;;;20.97;15.70;;;;;;;1.48;77.87;100986.27;1813463;78;21081;-71
2021/03/21 00:57:21;;;;;;;23.07;14.58;;;;;;;1.40;78.09;100979.06;1752217;81;20962;-72
2021/03/21 00:59:49;;;;;;;19.25;13.38;;;;;;;1.36;78.22;100980.86;1752760;81;21526;-71
2021/03/21 01:02:17;;;;;;;18.57;14.13;;;;;;;1.30;78.35;100980.95;1754583;81;21344;-72
2021/03/21 01:04:47;;;;;;;20.60;14.55;;;;;;;1.23;78.56;100987.95;1754465;81;21378;-72
2021/03/21 01:07:16;;;;;;;18.55;13.90;;;;;;;1.18;78.61;100989.76;1754382;81;21010;-71
2021/03/21 01:09:44;;;;;;;21.55;15.38;;;;;;;1.16;78.77;100981.63;1754451;81;20967;-70
2021/03/21 01:12:13;;;;;;;19.02;14.07;;;;;;;1.15;78.70;100981.19;1754503;81;21563;-71
2021/03/21 01:14:41;;;;;;;18.80;14.45;;;;;;;1.16;78.73;100983.76;1754474;81;21603;-73
2021/03/21 01:17:10;;;;;;;18.62;14.55;;;;;;;1.16;78.76;100981.18;1754492;81;21811;-72
2021/03/21 01:19:38;;;;;;;27.07;17.73;;;;;;;1.14;78.79;100981.64;1754429;81;20966;-74
2021/03/21 01:22:07;;;;;;;22.35;16.48;;;;;;;1.13;78.76;100974.75;1754404;81;20943;-72
2021/03/21 01:24:35;;;;;;;23.18;16.52;;;;;;;1.13;78.99;100976.04;1754520;81;21381;-72
2021/03/21 01:27:04;;;;;;;27.13;16.55;;;;;;;1.11;78.81;100976.94;1754538;81;21496;-71
2021/03/21 01:29:33;;;;;;;23.40;16.90;;;;;;;1.07;78.60;100970.99;1754433;81;22059;-71
2021/03/21 01:32:05;;;;;;;22.02;16.12;;;;;;;1.06;78.77;100974.44;1754338;81;21065;-72
2021/03/21 01:34:31;;;;;;;25.45;16.80;;;;;;;1.04;79.03;100968.44;1754491;81;21074;-72
2021/03/21 01:36:59;;;;;;;26.10;17.85;;;;;;;1.01;79.23;100974.50;1754455;81;20943;-74
2021/03/21 01:39:27;;;;;;;23.92;16.90;;;;;;;0.98;79.33;100969.40;1754444;81;20947;-72
2021/03/21 01:42:04;;;;;;;29.67;19.27;;;;;;;0.98;79.30;100967.27;1754355;81;21304;-71
2021/03/21 01:44:32;;;;;;;;;;;;;;;0.95;78.76;100973.74;1757008;81;20982;-72
2021/03/21 01:47:24;;;;;;;28.60;18.52;;;;;;;0.90;78.46;100971.67;1721758;81;20203;-73
2021/03/21 01:49:53;;;;;;;28.60;18.55;;;;;;;0.81;78.48;100965.76;1781035;80;21030;-72
2021/03/21 01:52:39;;;;;;;26.37;18.20;;;;;;;0.75;78.70;100961.97;1781093;80;21030;-73
2021/03/21 01:55:12;;;;;;;26.33;18.20;;;;;;;0.72;78.85;100962.02;1781165;80;22299;-72
2021/03/21 01:57:40;;;;;;;25.15;17.17;;;;;;;0.65;78.82;100962.98;1780686;80;20947;-72
2021/03/21 02:00:10;;;;;;;24.72;16.65;;;;;;;0.63;79.00;100958.28;1780360;80;21365;-72
2021/03/21 02:02:38;;;;;;;23.12;16.20;;;;;;;0.66;78.93;100953.51;1780501;80;20939;-72
2021/03/21 02:05:09;;;;;;;26.70;16.32;;;;;;;0.66;79.02;100959.52;1780605;80;20947;-71
2021/03/21 02:07:59;;;;;;;20.65;15.90;;;;;;;0.65;79.07;100959.56;1780654;80;22730;-72
2021/03/21 02:10:57;;;;;;;23.50;16.73;;;;;;;0.66;79.08;100958.67;1780468;80;20915;-73
2021/03/21 02:13:41;;;;;;;28.05;17.32;;;;;;;0.69;79.00;100953.04;1734131;82;21517;-73
2021/03/21 02:16:22;;;;;;;31.40;17.77;;;;;;;0.76;78.82;100958.53;1852368;77;22788;-72
2021/03/21 02:19:25;;;;;;;23.83;15.90;;;;;;;0.71;78.75;100959.04;1820127;78;21018;-74
2021/03/21 02:21:55;;;;;;;20.08;14.10;;;;;;;0.66;78.88;100958.67;1820050;78;21194;-71
2021/03/21 02:24:57;;;;;;;24.27;15.63;;;;;;;0.60;79.07;100962.17;1750142;82;21544;-72
2021/03/21 02:28:05;;;;;;;21.40;14.63;;;;;;;0.57;79.11;100957.06;1820013;78;21014;-72
2021/03/21 02:30:38;;;;;;;18.30;13.22;;;;;;;0.55;79.06;100958.36;1819993;78;21018;-72
2021/03/21 02:33:31;;;;;;;21.97;14.75;;;;;;;0.54;78.96;100960.55;1750345;81;21497;-72
2021/03/21 02:36:19;;;;;;;25.20;14.45;;;;;;;0.53;78.84;100960.55;1820011;78;21372;-71
2021/03/21 02:39:03;;;;;;;21.75;14.78;;;;;;;0.48;79.22;100960.61;1750248;81;21385;-71
2021/03/21 02:41:38;;;;;;;;;;;;;;;0.49;79.21;100960.17;1822743;78;20954;-72
2021/03/21 02:44:18;;;;;;;23.27;15.45;;;;;;;0.48;79.02;100967.06;1819742;78;20575;-71
2021/03/21 02:46:50;;;;;;;25.23;14.53;;;;;;;0.50;78.91;100962.73;1721450;82;20947;-71
2021/03/21 02:49:31;;;;;;;23.18;14.70;;;;;;;0.48;78.91;100964.48;1820105;78;22280;-73
2021/03/21 02:52:04;;;;;;;22.02;12.68;;;;;;;0.47;78.95;100967.95;1750095;81;21054;-73
2021/03/21 02:54:43;;;;;;;19.67;13.80;;;;;;;0.47;79.11;100958.92;1819954;78;20970;-72
2021/03/21 02:57:15;;;;;;;22.13;14.13;;;;;;;0.49;79.08;100963.63;1750116;81;21034;-74
2021/03/21 02:59:55;;;;;;;21.37;13.60;;;;;;;0.52;78.92;100961.00;1820081;78;21415;-72
2021/03/21 03:02:32;;;;;;;18.37;12.35;;;;;;;0.54;78.71;100961.83;1820027;78;22391;-73
2021/03/21 03:05:14;;;;;;;20.25;13.83;;;;;;;0.54;78.79;100968.73;1750081;81;21066;-73
2021/03/21 03:07:47;;;;;;;25.52;14.05;;;;;;;0.52;79.00;100964.87;1819970;78;20994;-72
2021/03/21 03:10:33;;;;;;;21.35;13.50;;;;;;;0.52;79.04;100966.16;1750223;81;20939;-71
2021/03/21 03:13:12;;;;;;;22.37;13.58;;;;;;;0.51;78.98;100963.59;1820126;78;21032;-72
2021/03/21 03:15:40;;;;;;;21.70;14.05;;;;;;;0.52;78.78;100967.45;1750014;81;22292;-71
2021/03/21 03:18:43;;;;;;;21.93;13.88;;;;;;;0.49;78.82;100966.21;1819905;78;20938;-71
2021/03/21 03:21:22;;;;;;;23.10;14.20;;;;;;;0.48;78.95;100972.67;1749261;81;21491;-72
2021/03/21 03:23:59;;;;;;;21.45;13.32;;;;;;;0.44;78.76;100964.10;1813287;78;21010;-72
2021/03/21 03:26:35;;;;;;;24.02;15.65;;;;;;;0.38;78.61;100968.92;1819733;78;20934;-71
2021/03/21 03:29:16;;;;;;;22.50;14.15;;;;;;;0.39;78.79;100965.45;1819326;78;21156;-71
2021/03/21 03:31:52;;;;;;;20.85;12.85;;;;;;;0.38;78.54;100970.66;1819258;78;21400;-71
2021/03/21 03:34:21;;;;;;;20.27;13.72;;;;;;;0.32;78.52;100965.12;1749308;82;21540;-70
2021/03/21 03:36:49;;;;;;;22.07;13.98;;;;;;;0.25;78.63;100960.06;1819280;78;21014;-71
2021/03/21 03:39:17;;;;;;;19.32;14.80;;;;;;;0.20;78.85;100964.84;1749690;82;20959;-71
2021/03/21 03:42:15;;;;;;;25.27;13.95;;;;;;;0.22;79.05;100969.11;1819494;78;22288;-71
2021/03/21 03:45:14;;;;;;;22.37;14.87;;;;;;;0.28;78.97;100972.47;1749483;81;21125;-70
2021/03/21 03:48:03;;;;;;;17.65;13.62;;;;;;;0.30;78.87;100974.59;1811769;78;21014;-71
2021/03/21 03:50:58;;;;;;;25.05;15.83;;;;;;;0.33;79.20;100968.55;1749509;81;21002;-70
2021/03/21 03:53:56;;;;;;;24.82;14.13;;;;;;;0.31;78.84;100967.30;1819514;78;20934;-70
2021/03/21 03:56:41;;;;;;;22.22;15.70;;;;;;;0.33;78.88;100971.97;1749559;81;22319;-71
2021/03/21 03:59:14;;;;;;;19.87;13.95;;;;;;;0.40;78.94;100965.89;1819377;78;22749;-70
2021/03/21 04:01:55;;;;;;;29.20;17.42;;;;;;;0.46;79.24;100965.38;1819290;78;21507;-70
2021/03/21 04:04:50;;;;;;;27.62;18.30;;;;;;;0.50;79.26;100966.61;1819260;78;21412;-72
2021/03/21 04:07:37;;;;;;;26.62;18.05;;;;;;;0.57;79.08;100966.09;1749708;81;21029;-70
2021/03/21 04:10:25;;;;;;;21.73;16.70;;;;;;;0.65;78.65;100969.44;1819348;78;21348;-72
2021/03/21 04:13:18;;;;;;;27.35;18.50;;;;;;;0.71;78.36;100971.94;1749512;81;21010;-71
2021/03/21 04:15:50;;;;;;;34.50;19.23;;;;;;;0.70;78.13;100974.09;1819151;78;20933;-70
2021/03/21 04:18:32;;;;;;;33.28;19.42;;;;;;;0.70;78.06;100974.09;1749488;81;20959;-71
2021/03/21 04:21:31;;;;;;;38.38;20.90;;;;;;;0.71;77.88;100975.81;1819340;78;20978;-69
2021/03/21 04:24:41;;;;;;;29.45;17.57;;;;;;;0.75;77.80;100981.33;1749521;82;21811;-70
2021/03/21 04:27:16;;;;;;;32.03;18.92;;;;;;;0.81;77.75;100980.41;1819254;78;21038;-72
2021/03/21 04:30:08;;;;;;;;;;;;;;;0.87;77.77;100974.28;1821992;78;20930;-71
2021/03/21 04:32:49;;;;;;;39.20;21.82;;;;;;;0.94;77.78;100985.80;1819324;78;20133;-70
2021/03/21 04:35:44;;;;;;;36.33;22.52;;;;;;;1.02;77.63;100988.27;1819331;78;21017;-70
2021/03/21 04:38:23;;;;;;;38.50;23.27;;;;;;;1.08;77.39;100987.33;1818670;78;21581;-70
2021/03/21 04:40:52;;;;;;;45.75;25.55;;;;;;;1.10;77.42;100992.04;1749471;81;21487;-70
2021/03/21 04:43:49;;;;;;;59.38;35.45;;;;;;;1.11;77.68;100994.61;1819435;78;20994;-71
2021/03/21 04:46:35;;;;;;;51.02;27.77;;;;;;;1.17;77.77;100996.23;1749487;81;21050;-71
2021/03/21 04:49:04;;;;;;;48.33;27.37;;;;;;;1.24;77.74;100996.13;1819324;78;20954;-70
2021/03/21 04:51:35;;;;;;;53.35;28.87;;;;;;;1.32;77.60;100993.41;1819398;78;22047;-70
2021/03/21 04:54:23;;;;;;;59.42;31.30;;;;;;;1.39;77.42;100998.89;1749456;81;21030;-70
2021/03/21 04:57:39;;;;;;;67.55;34.33;;;;;;;1.45;77.31;100998.80;1819265;78;20986;-71
2021/03/21 05:00:15;;;;;;;71.77;38.13;;;;;;;1.49;77.25;100996.16;1819383;78;22069;-71
2021/03/21 05:02:46;;;;;;;71.80;38.63;;;;;;;1.53;77.13;100999.10;1749661;81;21045;-71
2021/03/21 05:05:31;;;;;;;64.20;35.48;;;;;;;1.56;76.97;100999.08;1819247;78;21350;-71
2021/03/21 05:08:14;;;;;;;64.82;33.53;;;;;;;1.58;76.79;101004.62;1819374;78;21034;-71
2021/03/21 05:10:47;;;;;;;49.70;29.92;;;;;;;1.63;76.62;101007.13;1749539;81;21408;-72
2021/03/21 05:13:34;;;;;;;48.02;27.00;;;;;;;1.67;76.63;101010.08;1819301;78;21046;-73
2021/03/21 05:16:28;;;;;;;43.05;27.52;;;;;;;1.70;76.64;101005.30;1742938;81;21035;-73
2021/03/21 05:19:29;;;;;;;50.45;29.70;;;;;;;1.76;76.53;101010.37;1747033;82;21825;-71
2021/03/21 05:22:01;;;;;;;45.08;28.15;;;;;;;1.82;76.36;101005.94;1736735;82;20974;-72
2021/03/21 05:24:45;;;;;;;42.00;27.32;;;;;;;1.90;76.17;101003.66;1717137;83;21014;-74
2021/03/21 05:27:21;;;;;;;46.35;26.00;;;;;;;1.98;76.09;101002.63;1736604;82;20994;-73
2021/03/21 05:30:17;;;;;;;36.68;23.67;;;;;;;2.10;75.96;101008.46;1717123;83;20959;-73
2021/03/21 05:32:48;;;;;;;40.45;24.30;;;;;;;2.23;75.63;101006.05;1736992;82;21372;-71
2021/03/21 05:35:26;;;;;;;44.77;26.70;;;;;;;2.33;75.39;101010.59;1717057;83;20971;-73
2021/03/21 05:38:16;;;;;;;47.15;26.27;;;;;;;2.46;75.25;101004.30;1736941;82;20950;-73
2021/03/21 05:41:23;;;;;;;42.30;27.20;;;;;;;2.63;74.92;101006.09;1717109;83;20963;-74
2021/03/21 05:44:02;;;;;;;34.65;24.00;;;;;;;2.85;74.76;101009.09;1736851;82;21063;-72
2021/03/21 05:47:09;;;;;;;45.12;23.92;;;;;;;3.13;74.07;101007.16;1717194;83;22892;-72
2021/03/21 05:50:01;;;;;;;31.48;18.25;;;;;;;3.43;73.49;101003.45;1736834;82;21045;-74
2021/03/21 05:53:04;;;;;;;27.02;18.57;;;;;;;4.05;72.51;101000.16;1717207;83;20959;-73
2021/03/21 05:55:54;;;;;;;24.52;18.12;;;;;;;4.77;70.74;100997.64;1736701;82;21085;-73
2021/03/21 05:58:49;;;;;;;24.77;16.87;;;;;;;5.60;68.96;100991.57;1717204;82;21448;-73
2021/03/21 06:01:52;;;;;;;22.30;16.05;;;;;;;6.39;67.19;100999.69;1737014;82;22123;-73
2021/03/21 06:05:15;;;;;;;19.27;14.55;;;;;;;7.12;63.98;101003.48;1716945;83;21106;-72
2021/03/21 06:07:57;;;;;;;22.13;14.75;;;;;;;7.65;61.69;101004.38;1736938;82;21388;-75
2021/03/21 06:10:58;;;;;;;20.57;15.93;;;;;;;8.03;59.90;100994.91;1717087;83;21381;-73
2021/03/21 06:13:51;;;;;;;20.23;13.15;;;;;;;8.45;59.95;100993.13;1736636;82;21452;-72
2021/03/21 06:17:04;;;;;;;19.90;15.15;;;;;;;8.77;57.46;100991.63;1721703;82;21492;-72
2021/03/21 06:20:00;;;;;;;19.52;13.75;;;;;;;9.09;56.71;100987.52;1760101;81;21006;-72
2021/03/21 06:22:51;;;;;;;14.00;12.60;;;;;;;9.18;55.05;100989.28;1746370;82;20943;-72
2021/03/21 06:25:40;;;;;;;18.60;14.03;;;;;;;9.00;54.54;100994.47;1742540;82;21042;-74
2021/03/21 06:28:37;;;;;;;17.77;13.08;;;;;;;8.76;54.95;100996.92;1773211;80;21093;-73
2021/03/21 06:31:10;;;;;;;16.32;13.85;;;;;;;8.58;54.84;100996.87;1760118;81;21384;-77
2021/03/21 06:33:57;;;;;;;17.60;13.73;;;;;;;8.41;54.91;100999.41;1742802;82;20959;-76
2021/03/21 06:36:46;;;;;;;21.73;15.53;;;;;;;8.25;55.72;100992.20;1773084;80;20935;-75
2021/03/21 06:39:47;;;;;;;19.37;15.05;;;;;;;8.26;55.89;100987.36;1760161;81;21014;-74
2021/03/21 06:42:36;;;;;;;26.27;16.12;;;;;;;8.41;55.52;100984.56;1742557;82;21045;-75
2021/03/21 06:45:34;;;;;;;28.60;18.23;;;;;;;8.36;55.07;100982.59;1773243;81;21380;-75
2021/03/21 06:48:29;;;;;;;23.90;17.15;;;;;;;8.10;55.19;100983.73;1759952;81;20990;-72
2021/03/21 06:51:09;;;;;;;;;;;;;;;7.82;55.42;100978.85;1745247;82;20956;-74
2021/03/21 06:54:12;;;;;;;23.50;16.48;;;;;;;7.62;55.87;100970.09;1728742;81;20157;-75
2021/03/21 06:56:52;;;;;;;24.18;17.12;;;;;;;7.57;56.41;100973.83;1717391;82;20967;-74
2021/03/21 07:00:01;;;;;;;20.45;15.30;;;;;;;7.73;56.71;100964.42;1760133;81;20998;-75
2021/03/21 07:03:01;;;;;;;18.87;13.88;;;;;;;8.00;57.07;100969.37;1746180;82;21002;-73
2021/03/21 07:05:55;;;;;;;14.07;11.28;;;;;;;8.34;57.00;100960.91;1742721;81;21077;-73
2021/03/21 07:08:50;;;;;;;9.40;8.43;;;;;;;8.44;56.24;100956.13;1773496;80;21006;-75
2021/03/21 07:11:59;;;;;;;11.38;7.97;;;;;;;8.33;54.75;100961.80;1742878;81;20959;-74
2021/03/21 07:14:41;;;;;;;10.05;7.47;;;;;;;8.41;54.96;100951.89;1759975;81;21909;-73
2021/03/21 07:17:58;;;;;;;9.03;6.42;;;;;;;8.74;53.59;100952.56;1744355;82;21085;-73
2021/03/21 07:21:18;;;;;;;9.28;6.55;;;;;;;8.88;52.34;100950.59;1819475;78;21349;-75
2021/03/21 07:24:36;;;;;;;10.75;8.05;;;;;;;8.95;52.11;100948.07;1819419;78;21341;-75
2021/03/21 07:27:44;;;;;;;7.90;7.10;;;;;;;8.85;51.85;100945.53;1749569;82;20986;-74
2021/03/21 07:30:47;;;;;;;12.60;8.40;;;;;;;8.70;51.99;100941.86;1819364;78;22378;-74
2021/03/21 07:33:33;;;;;;;10.55;9.45;;;;;;;8.78;53.47;100939.73;1749527;81;21005;-76
2021/03/21 07:36:28;;;;;;;13.80;12.45;;;;;;;8.81;52.51;100933.52;1819351;78;21045;-75
2021/03/21 07:39:37;;;;;;;15.95;14.28;;;;;;;9.10;52.12;100940.80;1779401;78;20966;-75
2021/03/21 07:42:26;;;;;;;9.83;8.18;;;;;;;9.31;52.20;100939.34;1819323;78;21009;-72
2021/03/21 07:45:23;;;;;;;12.15;9.20;;;;;;;9.49;51.18;100931.03;1819348;78;22225;-78
2021/03/21 07:48:30;;;;;;;8.58;7.55;;;;;;;9.42;51.26;100932.27;1819358;78;20994;-78
2021/03/21 07:51:21;;;;;;;9.13;8.00;;;;;;;9.28;50.67;100928.57;1819358;78;20946;-77
2021/03/21 07:54:19;;;;;;;7.25;6.20;;;;;;;8.98;51.46;100931.38;1819323;78;20927;-79
2021/03/21 07:56:55;;;;;;;7.75;6.95;;;;;;;8.74;51.35;100926.86;1819446;78;20923;-79
2021/03/21 07:59:25;;;;;;;9.65;8.25;;;;;;;8.40;50.69;100920.12;1819452;78;21437;-76
2021/03/21 08:01:53;;;;;;;7.53;5.83;;;;;;;8.12;51.16;100927.05;1819426;78;21719;-78
2021/03/21 08:04:32;;;;;;;5.35;4.85;;;;;;;7.80;52.71;100935.86;1749553;81;21017;-76
2021/03/21 08:07:03;;;;;;;6.15;5.55;;;;;;;7.37;54.73;100949.87;1819133;78;21041;-77
2021/03/21 08:09:37;;;;;;;7.15;5.20;;;;;;;6.79;56.56;100938.72;1749697;81;20997;-77
2021/03/21 08:12:26;;;;;;;13.75;8.73;;;;;;;6.25;58.29;100930.34;1819574;78;21194;-78
2021/03/21 08:15:21;;;;;;;7.45;5.55;;;;;;;5.92;60.08;100924.12;1819285;78;21029;-77
2021/03/21 08:18:03;;;;;;;6.37;5.65;;;;;;;5.92;61.49;100931.08;1815368;78;20959;-76
2021/03/21 08:20:35;;;;;;;6.50;5.62;;;;;;;6.18;62.76;100933.62;1793865;79;21002;-75
2021/03/21 08:23:25;;;;;;;6.05;5.45;;;;;;;6.80;62.29;100924.77;1809031;79;20962;-80
2021/03/21 08:25:56;;;;;;;5.03;4.12;;;;;;;7.47;61.44;100919.88;1688544;85;21375;-71
2021/03/21 08:28:35;;;;;;;5.90;4.53;;;;;;;8.02;58.92;100917.92;1699104;84;21090;-73
2021/03/21 08:30:58;;;;;;;5.03;4.42;;;;;;;8.50;58.10;100918.80;1716223;83;21576;-71
2021/03/21 08:33:40;;;;;;;7.05;4.85;;;;;;;9.10;58.16;100916.41;1717380;83;20963;-72
2021/03/21 08:36:26;;;;;;;5.33;4.85;;;;;;;9.79;55.12;100907.68;1717438;83;20975;-71
2021/03/21 08:39:05;;;;;;;5.55;5.08;;;;;;;10.51;52.09;100912.17;1717434;83;21373;-74
2021/03/21 08:41:50;;;;;;;6.55;4.53;;;;;;;11.12;50.64;100897.39;1717356;83;20990;-71
2021/03/21 08:44:33;;;;;;;;;;;;;;;11.47;48.10;100890.08;1719954;83;21432;-70
2021/03/21 08:47:24;;;;;;;5.60;4.37;;;;;;;11.73;46.98;100881.92;1890088;76;22537;-71
2021/03/21 08:49:54;;;;;;;6.20;4.75;;;;;;;11.69;46.74;100886.98;1861097;77;21630;-71
2021/03/21 08:52:31;;;;;;;5.83;4.62;;;;;;;11.65;46.96;100880.25;1823549;78;21280;-72
2021/03/21 08:55:04;;;;;;;5.30;4.80;;;;;;;11.10;45.94;100876.95;1823600;78;20906;-78
2021/03/21 08:57:35;;;;;;;5.37;4.87;;;;;;;11.10;45.94;100876.95;1823462;78;21003;-72
2021/03/21 09:00:23;;;;;;;5.10;4.60;;;;;;;10.71;47.42;100877.80;1823257;78;20988;-74
2021/03/21 09:02:52;;;;;;;4.97;4.05;;;;;;;10.35;47.60;100878.09;1823303;78;20983;-76
2021/03/21 09:05:23;;;;;;;6.40;4.67;;;;;;;9.95;49.33;100873.66;1823250;78;22758;-71
2021/03/21 09:07:56;;;;;;;5.35;4.75;;;;;;;9.63;50.13;100870.13;1823101;78;20944;-70
2021/03/21 09:10:43;;;;;;;5.12;4.58;;;;;;;9.36;49.76;100874.99;1823436;78;21027;-72
2021/03/21 09:13:23;;;;;;;5.58;5.08;;;;;;;9.06;49.22;100868.61;1823072;78;20959;-72
2021/03/21 09:16:05;;;;;;;5.47;4.97;;;;;;;8.75;49.17;100874.50;1823262;78;21461;-71
2021/03/21 09:18:41;;;;;;;5.72;4.53;;;;;;;8.35;48.58;100876.36;1823087;78;21189;-72
2021/03/21 09:21:24;;;;;;;6.00;5.08;;;;;;;8.01;49.93;100875.30;1823064;78;20971;-71
2021/03/21 09:24:07;;;;;;;5.50;5.00;;;;;;;7.74;49.99;100870.86;1823375;78;21472;-71
2021/03/21 09:26:45;;;;;;;7.85;5.42;;;;;;;7.50;51.00;100869.32;1823120;78;20948;-70
2021/03/21 09:29:30;;;;;;;5.25;4.72;;;;;;;7.31;50.88;100867.94;1823089;78;21461;-72
2021/03/21 09:32:05;;;;;;;4.55;3.83;;;;;;;7.11;51.08;100864.86;1823116;78;21376;-72
2021/03/21 09:35:04;;;;;;;6.30;4.72;;;;;;;6.88;51.23;100863.21;1823020;78;21020;-72
2021/03/21 09:37:35;;;;;;;7.55;5.62;;;;;;;6.72;51.75;100858.62;1820112;78;21047;-70
2021/03/21 09:40:34;;;;;;;9.40;5.92;;;;;;;6.69;52.16;100860.02;1823226;78;21453;-70
2021/03/21 09:43:03;;;;;;;9.98;6.40;;;;;;;6.74;51.30;100854.20;1823078;78;21050;-71
2021/03/21 09:45:31;;;;;;;10.15;7.45;;;;;;;7.13;50.39;100845.62;1822948;78;21200;-73
2021/03/21 09:48:01;;;;;;;10.58;6.80;;;;;;;7.66;50.29;100841.16;1822993;78;20944;-72
2021/03/21 09:50:49;;;;;;;6.12;5.42;;;;;;;8.32;50.01;100840.39;1823150;78;20937;-71
2021/03/21 09:53:45;;;;;;;7.30;5.60;;;;;;;8.76;47.04;100830.45;1823001;78;21541;-76
2021/03/21 09:56:51;;;;;;;5.45;4.22;;;;;;;9.01;45.25;100824.84;1823175;78;20968;-74
2021/03/21 09:59:44;;;;;;;4.58;4.17;;;;;;;9.04;42.96;100828.59;1822496;78;21199;-73
2021/03/21 10:02:27;;;;;;;4.90;3.65;;;;;;;8.91;43.52;100828.83;1822512;78;21031;-74
2021/03/21 10:05:29;;;;;;;6.00;5.08;;;;;;;8.78;42.55;100827.73;1822457;78;21119;-75
2021/03/21 10:08:09;;;;;;;18.95;11.70;;;;;;;8.63;42.82;100824.13;1822487;78;20889;-74
2021/03/21 10:10:45;;;;;;;10.10;8.18;;;;;;;8.59;44.91;100829.11;1822512;78;20935;-72
2021/03/21 10:13:35;;;;;;;7.55;5.50;;;;;;;8.61;44.52;100820.27;1817266;78;21354;-72
2021/03/21 10:16:20;;;;;;;4.15;3.75;;;;;;;8.90;44.44;100812.77;1822466;78;20952;-74
2021/03/21 10:18:52;;;;;;;4.58;3.90;;;;;;;9.18;44.09;100815.28;1791423;78;20955;-73
2021/03/21 10:21:28;;;;;;;4.67;4.28;;;;;;;9.34;41.44;100819.66;1822455;78;20941;-72
2021/03/21 10:24:18;;;;;;;5.42;4.37;;;;;;;9.34;40.82;100819.66;1822595;78;21016;-74
2021/03/21 10:27:22;;;;;;;5.95;5.10;;;;;;;9.23;40.51;100818.53;1822271;78;21371;-73
2021/03/21 10:30:20;;;;;;;7.20;5.17;;;;;;;9.00;41.34;100810.52;1822461;78;20947;-74
2021/03/21 10:33:03;;;;;;;13.35;8.78;;;;;;;8.74;41.46;100815.30;1822416;78;21039;-74
2021/03/21 10:35:43;;;;;;;11.78;6.95;;;;;;;8.58;41.87;100810.41;1822452;78;21031;-74
2021/03/21 10:38:16;;;;;;;9.33;5.78;;;;;;;8.49;42.12;100806.03;1822532;78;20952;-75
2021/03/21 10:40:45;;;;;;;8.20;4.97;;;;;;;8.46;41.88;100808.78;1790737;78;21815;-73
2021/03/21 10:43:22;;;;;;;6.95;5.37;;;;;;;8.37;42.07;100802.66;1822466;78;21017;-74
2021/03/21 10:45:55;;;;;;;6.28;4.12;;;;;;;8.23;42.09;100805.09;1822705;78;21067;-75
2021/03/21 10:48:33;;;;;;;5.27;3.83;;;;;;;8.12;41.85;100810.82;1822708;78;20996;-74
2021/03/21 10:51:08;;;;;;;7.20;4.55;;;;;;;8.09;41.20;100805.72;1822489;78;20928;-74
2021/03/21 10:53:55;;;;;;;9.43;4.78;;;;;;;8.00;42.38;100803.54;1822578;78;21344;-79
2021/03/21 10:56:29;;;;;;;8.05;5.33;;;;;;;7.94;42.95;100809.03;1822386;78;21007;-76
2021/03/21 10:59:24;;;;;;;11.20;7.70;;;;;;;7.72;42.42;100802.20;1822525;78;20960;-77
2021/03/21 11:02:23;;;;;;;12.63;9.13;;;;;;;7.51;43.52;100797.94;1822547;78;21458;-73
2021/03/21 11:05:02;;;;;;;12.33;9.73;;;;;;;7.28;43.91;100797.66;1822492;78;21350;-75
2021/03/21 11:07:30;;;;;;;13.90;9.48;;;;;;;6.98;45.32;100796.30;1822449;78;21378;-74
2021/03/21 11:10:03;;;;;;;11.83;8.05;;;;;;;6.84;46.23;100790.80;1822375;78;20952;-75
2021/03/21 11:12:36;;;;;;;10.82;8.30;;;;;;;6.77;45.46;100791.50;1822688;78;21087;-76
2021/03/21 11:15:35;;;;;;;14.23;8.95;;;;;;;6.72;44.17;100784.34;1821608;78;21015;-75
2021/03/21 11:18:24;;;;;;;12.73;9.25;;;;;;;6.68;44.13;100776.25;1822442;78;21039;-74
2021/03/21 11:21:11;;;;;;;11.88;9.15;;;;;;;6.65;44.22;100765.97;1822465;78;22086;-75
2021/03/21 11:23:52;;;;;;;11.50;8.40;;;;;;;6.56;45.04;100765.89;1822361;78;21394;-75
2021/03/21 11:26:35;;;;;;;10.93;5.92;;;;;;;6.54;45.78;100760.35;1822240;78;21409;-76
2021/03/21 11:29:32;;;;;;;9.73;5.92;;;;;;;6.53;44.84;100761.25;1822386;78;21484;-77
2021/03/21 11:32:15;;;;;;;10.63;5.62;;;;;;;6.63;44.72;100757.36;1822543;78;21020;-76
2021/03/21 11:34:44;;;;;;;7.80;5.40;;;;;;;7.05;44.88;100744.27;1822255;78;21189;-78
2021/03/21 11:37:21;;;;;;;8.38;5.30;;;;;;;7.67;44.73;100744.98;1822240;78;20991;-75
2021/03/21 11:40:07;;;;;;;6.75;5.50;;;;;;;8.21;44.20;100744.23;1822497;78;20940;-76
2021/03/21 11:42:40;;;;;;;7.40;6.28;;;;;;;8.52;42.14;100737.55;1822334;78;21010;-73
2021/03/21 11:45:27;;;;;;;10.63;5.80;;;;;;;8.77;41.97;100739.77;1822409;78;20936;-76
2021/03/21 11:48:12;;;;;;;6.80;5.73;;;;;;;8.95;41.91;100740.60;1790674;78;22249;-73
2021/03/21 11:50:44;;;;;;;6.35;4.75;;;;;;;9.02;40.96;100734.12;1772318;80;20978;-75
2021/03/21 11:53:18;;;;;;;8.90;6.45;;;;;;;8.90;40.04;100729.91;1746074;80;20910;-75
2021/03/21 11:55:57;;;;;;;10.13;6.62;;;;;;;8.80;40.01;100727.84;1774013;80;20993;-76
2021/03/21 11:58:37;;;;;;;8.70;7.00;;;;;;;8.61;40.80;100731.39;1773859;80;20974;-74
2021/03/21 12:01:41;;;;;;;12.58;8.18;;;;;;;8.37;42.19;100726.04;1774101;80;22316;-76
2021/03/21 12:04:12;;;;;;;11.30;7.30;;;;;;;8.14;42.83;100732.36;1773766;80;20957;-75
2021/03/21 12:06:53;;;;;;;10.50;7.17;;;;;;;7.74;43.12;100729.89;1773949;79;21387;-76
2021/03/21 12:09:38;;;;;;;13.98;7.72;;;;;;;7.45;44.16;100728.16;1773800;80;20953;-75
2021/03/21 12:12:40;;;;;;;8.10;5.37;;;;;;;7.20;44.91;100723.20;1774085;80;21001;-74
2021/03/21 12:15:26;;;;;;;9.38;6.95;;;;;;;7.05;45.13;100717.35;1774047;80;21353;-77
2021/03/21 12:18:18;;;;;;;7.87;6.28;;;;;;;6.85;45.48;100716.45;1772068;79;21017;-73
2021/03/21 12:20:54;;;;;;;11.97;7.75;;;;;;;6.73;45.45;100718.72;1773668;80;21025;-71
2021/03/21 12:23:49;;;;;;;11.30;7.28;;;;;;;6.63;46.62;100720.42;1774003;80;21392;-73
2021/03/21 12:26:28;;;;;;;12.28;7.05;;;;;;;6.64;46.29;100712.14;1773740;80;20971;-73
2021/03/21 12:29:06;;;;;;;9.55;6.30;;;;;;;6.63;46.45;100710.46;1773984;79;21371;-73
2021/03/21 12:31:39;;;;;;;8.35;6.50;;;;;;;6.59;46.89;100713.64;1773523;80;21013;-73
2021/03/21 12:34:37;;;;;;;9.97;7.27;;;;;;;6.46;46.22;100718.13;1774272;80;21364;-72
2021/03/21 12:37:12;;;;;;;13.38;8.33;;;;;;;6.33;46.20;100719.92;1746054;80;21001;-72